Airfield :
LOGIN :

Register | Disclaimer

   EN    FR    IT 

 










Legend :    VFR   Marginal VFR   IFR   Intensive IFR   Very Intensive IFR
Visi :
Ceiling :
>= 8 km
>= 3000ft
5 to 8 km
1000 to 3000 ft
1500m to 5 km
500 to 1000 ft
800 to 1500m
200 to 500 ft
< 800m
< 200 ft
Symbols :   Thunderstorms  Fog  Heavy snow  Heavy precipitations  Wind > 20 kt
SIGMETs :     Misc.  Thunderstorms  Icing  Turbulence  Mountain Waves  Volcanic Ashes







- Airport Elevation : 124 ft
- IATA code : NHT
- Download approach charts


EGWU - RAF Northolt

CURRENT METAR :
  • 121450Z 22007KT CAVOK 04/M00 Q1009 NOSIG

EXPIRED METARs :
  • 121350Z 22003KT CAVOK 04/00 Q1009 NOSIG
  • 121329Z 23004KT CAVOK 04/M00 Q1009 BLU NOSIG
  • 121250Z 26005KT CAVOK 04/M00 Q1009 NOSIG

TAF TAF EGWU
Valid from the 12 at 15:00 until the 13 at 09:00 UTC


121341Z 1215/1309 24005KT CAVOK
PROB40 1216/1223 5000 HZ
BECMG 1221/1223 19015KT -RA BKN012
PROB40
TEMPO 1223/1305 4000 RA BKN006
BECMG 1304/1307 27008KT NSW FEW012
No reported NOTAMs for that airfield.
1 SIGMET reported for the London FIR (EGTT) :
 
Severe turbulence
EGTT SIGMET 03 VALID 121500/121900 EGRR
EGTT LONDON FIR SEV TURB FCST WI N5100 W00726 - N5207 W00519 - N4934 W00416 - N4926 W00456 - N4901 W00703 - N5100 W00726 FL200/420 MOV E 05KT NC=



MET'MAP, your aeronautical weather chart ! - Copyright ORBIFLY December 2007 - Disclaimer

ORBIFLY MET'MAP TEAM :

Programming & Development : Alexandra Zaïnal
Concept & Development : Baudouin d'Aumeries
Co-Development & Prog : Marc-Olivier Méhu
Technical & hardware support : Manuel Goepfert

Contact : metmap@orbifly.com




SOURCES & CREDITS :

   NOAA